sensor_id;sensor_type;location;lat;lon;timestamp;P1;durP1;ratioP1;P2;durP2;ratioP2
74922;SDS011;64715;44.760;37.678;2023-06-22T00:00:33;7.35;;;2.42;;
74922;SDS011;64715;44.760;37.678;2023-06-22T00:01:34;7.38;;;2.70;;
74922;SDS011;64715;44.760;37.678;2023-06-22T00:02:35;6.55;;;2.08;;
74922;SDS011;64715;44.760;37.678;2023-06-22T00:03:36;7.23;;;2.70;;
74922;SDS011;64715;44.760;37.678;2023-06-22T00:04:37;6.38;;;1.90;;
74922;SDS011;64715;44.760;37.678;2023-06-22T00:05:38;6.38;;;1.95;;
74922;SDS011;64715;44.760;37.678;2023-06-22T00:06:39;7.45;;;2.03;;
74922;SDS011;64715;44.760;37.678;2023-06-22T00:07:40;5.80;;;2.15;;
74922;SDS011;64715;44.760;37.678;2023-06-22T00:08:41;7.07;;;2.10;;
74922;SDS011;64715;44.760;37.678;2023-06-22T00:09:42;6.75;;;2.00;;
74922;SDS011;64715;44.760;37.678;2023-06-22T00:10:43;6.47;;;2.33;;
74922;SDS011;64715;44.760;37.678;2023-06-22T00:11:45;7.07;;;2.60;;
74922;SDS011;64715;44.760;37.678;2023-06-22T00:12:46;8.10;;;2.50;;
74922;SDS011;64715;44.760;37.678;2023-06-22T00:13:47;7.43;;;2.40;;
74922;SDS011;64715;44.760;37.678;2023-06-22T00:14:49;8.32;;;2.47;;
74922;SDS011;64715;44.760;37.678;2023-06-22T00:15:50;8.87;;;2.47;;
74922;SDS011;64715;44.760;37.678;2023-06-22T00:16:51;9.63;;;2.53;;
74922;SDS011;64715;44.760;37.678;2023-06-22T00:17:55;7.30;;;2.20;;
74922;SDS011;64715;44.760;37.678;2023-06-22T00:18:58;8.07;;;2.25;;
74922;SDS011;64715;44.760;37.678;2023-06-22T00:20:00;6.60;;;2.20;;
74922;SDS011;64715;44.760;37.678;2023-06-22T00:21:02;7.13;;;2.30;;
74922;SDS011;64715;44.760;37.678;2023-06-22T00:22:03;6.95;;;2.53;;
74922;SDS011;64715;44.760;37.678;2023-06-22T00:23:05;6.78;;;2.20;;
74922;SDS011;64715;44.760;37.678;2023-06-22T00:24:08;8.02;;;3.03;;
74922;SDS011;64715;44.760;37.678;2023-06-22T00:25:11;9.05;;;2.67;;
74922;SDS011;64715;44.760;37.678;2023-06-22T00:26:12;10.40;;;2.57;;
74922;SDS011;64715;44.760;37.678;2023-06-22T00:27:17;9.00;;;2.70;;
74922;SDS011;64715;44.760;37.678;2023-06-22T00:28:18;7.45;;;2.63;;
74922;SDS011;64715;44.760;37.678;2023-06-22T00:29:20;10.45;;;2.40;;
74922;SDS011;64715;44.760;37.678;2023-06-22T00:30:21;6.95;;;2.60;;
74922;SDS011;64715;44.760;37.678;2023-06-22T00:31:22;7.32;;;2.45;;
74922;SDS011;64715;44.760;37.678;2023-06-22T00:32:23;8.82;;;3.03;;
74922;SDS011;64715;44.760;37.678;2023-06-22T00:33:24;9.05;;;2.35;;
74922;SDS011;64715;44.760;37.678;2023-06-22T00:34:25;8.02;;;2.50;;
74922;SDS011;64715;44.760;37.678;2023-06-22T00:35:27;7.63;;;2.50;;
74922;SDS011;64715;44.760;37.678;2023-06-22T00:36:30;8.05;;;3.00;;
74922;SDS011;64715;44.760;37.678;2023-06-22T00:37:32;7.68;;;2.67;;
74922;SDS011;64715;44.760;37.678;2023-06-22T00:38:33;7.30;;;2.92;;
74922;SDS011;64715;44.760;37.678;2023-06-22T00:39:35;8.48;;;3.15;;
74922;SDS011;64715;44.760;37.678;2023-06-22T00:40:38;8.18;;;2.88;;
74922;SDS011;64715;44.760;37.678;2023-06-22T00:41:39;9.52;;;2.55;;
74922;SDS011;64715;44.760;37.678;2023-06-22T00:42:40;8.18;;;3.58;;
74922;SDS011;64715;44.760;37.678;2023-06-22T00:43:42;6.95;;;2.45;;
74922;SDS011;64715;44.760;37.678;2023-06-22T00:44:43;7.10;;;2.37;;
74922;SDS011;64715;44.760;37.678;2023-06-22T00:45:45;7.75;;;2.90;;
74922;SDS011;64715;44.760;37.678;2023-06-22T00:46:46;12.27;;;3.53;;
74922;SDS011;64715;44.760;37.678;2023-06-22T00:47:47;7.28;;;2.72;;
74922;SDS011;64715;44.760;37.678;2023-06-22T00:48:49;9.50;;;2.50;;
74922;SDS011;64715;44.760;37.678;2023-06-22T00:49:53;8.00;;;3.13;;
74922;SDS011;64715;44.760;37.678;2023-06-22T00:50:54;8.05;;;2.58;;
74922;SDS011;64715;44.760;37.678;2023-06-22T00:51:57;8.10;;;2.72;;
74922;SDS011;64715;44.760;37.678;2023-06-22T00:53:00;8.50;;;2.40;;
74922;SDS011;64715;44.760;37.678;2023-06-22T00:54:08;10.03;;;2.70;;
74922;SDS011;64715;44.760;37.678;2023-06-22T00:55:12;7.60;;;2.83;;
74922;SDS011;64715;44.760;37.678;2023-06-22T00:56:14;10.60;;;2.50;;
74922;SDS011;64715;44.760;37.678;2023-06-22T00:57:19;6.88;;;2.45;;
74922;SDS011;64715;44.760;37.678;2023-06-22T00:58:21;9.35;;;2.55;;
74922;SDS011;64715;44.760;37.678;2023-06-22T00:59:23;7.95;;;2.60;;
74922;SDS011;64715;44.760;37.678;2023-06-22T01:00:24;8.13;;;2.67;;
74922;SDS011;64715;44.760;37.678;2023-06-22T01:01:27;9.68;;;2.83;;
74922;SDS011;64715;44.760;37.678;2023-06-22T01:02:30;8.73;;;3.00;;
74922;SDS011;64715;44.760;37.678;2023-06-22T01:03:32;7.63;;;2.72;;
74922;SDS011;64715;44.760;37.678;2023-06-22T01:04:37;8.47;;;2.70;;
74922;SDS011;64715;44.760;37.678;2023-06-22T01:05:41;10.98;;;2.83;;
74922;SDS011;64715;44.760;37.678;2023-06-22T01:06:45;7.45;;;2.92;;
74922;SDS011;64715;44.760;37.678;2023-06-22T01:08:12;8.27;;;2.67;;
74922;SDS011;64715;44.760;37.678;2023-06-22T01:09:45;7.75;;;2.53;;
74922;SDS011;64715;44.760;37.678;2023-06-22T01:12:38;7.55;;;2.45;;
74922;SDS011;64715;44.760;37.678;2023-06-22T01:14:19;7.75;;;2.83;;
74922;SDS011;64715;44.760;37.678;2023-06-22T01:15:20;10.63;;;2.17;;
74922;SDS011;64715;44.760;37.678;2023-06-22T01:16:29;8.80;;;2.75;;
74922;SDS011;64715;44.760;37.678;2023-06-22T01:17:31;6.85;;;2.90;;
74922;SDS011;64715;44.760;37.678;2023-06-22T01:18:34;7.72;;;2.70;;
74922;SDS011;64715;44.760;37.678;2023-06-22T01:19:49;8.75;;;2.92;;
74922;SDS011;64715;44.760;37.678;2023-06-22T01:20:56;10.35;;;3.03;;
74922;SDS011;64715;44.760;37.678;2023-06-22T01:21:58;9.35;;;3.08;;
74922;SDS011;64715;44.760;37.678;2023-06-22T01:24:48;7.38;;;2.65;;
74922;SDS011;64715;44.760;37.678;2023-06-22T01:28:54;8.77;;;2.90;;
74922;SDS011;64715;44.760;37.678;2023-06-22T01:29:58;8.75;;;3.00;;
74922;SDS011;64715;44.760;37.678;2023-06-22T01:31:01;8.32;;;2.75;;
74922;SDS011;64715;44.760;37.678;2023-06-22T01:32:06;8.05;;;3.00;;
74922;SDS011;64715;44.760;37.678;2023-06-22T01:33:10;8.98;;;3.38;;
74922;SDS011;64715;44.760;37.678;2023-06-22T01:34:15;6.32;;;2.33;;
74922;SDS011;64715;44.760;37.678;2023-06-22T01:35:18;9.07;;;3.28;;
74922;SDS011;64715;44.760;37.678;2023-06-22T01:36:21;9.30;;;3.40;;
74922;SDS011;64715;44.760;37.678;2023-06-22T01:37:24;8.88;;;2.97;;
74922;SDS011;64715;44.760;37.678;2023-06-22T01:38:25;8.77;;;2.63;;
74922;SDS011;64715;44.760;37.678;2023-06-22T01:39:28;8.13;;;3.10;;
74922;SDS011;64715;44.760;37.678;2023-06-22T01:40:31;9.80;;;3.13;;
74922;SDS011;64715;44.760;37.678;2023-06-22T01:41:37;7.85;;;3.13;;
74922;SDS011;64715;44.760;37.678;2023-06-22T01:42:39;10.13;;;3.53;;
74922;SDS011;64715;44.760;37.678;2023-06-22T01:43:41;10.93;;;3.28;;
74922;SDS011;64715;44.760;37.678;2023-06-22T01:44:43;9.68;;;3.10;;
74922;SDS011;64715;44.760;37.678;2023-06-22T01:45:44;8.18;;;3.10;;
74922;SDS011;64715;44.760;37.678;2023-06-22T01:46:46;10.45;;;3.08;;
74922;SDS011;64715;44.760;37.678;2023-06-22T01:47:49;8.48;;;2.90;;
74922;SDS011;64715;44.760;37.678;2023-06-22T01:48:50;10.30;;;2.83;;
74922;SDS011;64715;44.760;37.678;2023-06-22T01:49:51;9.68;;;3.75;;
74922;SDS011;64715;44.760;37.678;2023-06-22T01:50:54;9.23;;;3.22;;
74922;SDS011;64715;44.760;37.678;2023-06-22T01:51:55;9.43;;;3.45;;
74922;SDS011;64715;44.760;37.678;2023-06-22T01:52:57;10.00;;;3.30;;
74922;SDS011;64715;44.760;37.678;2023-06-22T01:54:01;11.55;;;2.90;;
74922;SDS011;64715;44.760;37.678;2023-06-22T01:55:03;8.70;;;2.85;;
74922;SDS011;64715;44.760;37.678;2023-06-22T01:56:05;11.35;;;3.03;;
74922;SDS011;64715;44.760;37.678;2023-06-22T01:57:08;8.18;;;2.97;;
74922;SDS011;64715;44.760;37.678;2023-06-22T01:58:10;7.65;;;2.80;;
74922;SDS011;64715;44.760;37.678;2023-06-22T01:59:25;8.57;;;2.87;;
74922;SDS011;64715;44.760;37.678;2023-06-22T02:00:32;13.48;;;3.58;;
74922;SDS011;64715;44.760;37.678;2023-06-22T02:01:59;8.45;;;2.90;;
74922;SDS011;64715;44.760;37.678;2023-06-22T02:03:05;7.53;;;2.80;;
74922;SDS011;64715;44.760;37.678;2023-06-22T02:04:13;7.15;;;2.70;;
74922;SDS011;64715;44.760;37.678;2023-06-22T02:05:22;7.95;;;2.97;;
74922;SDS011;64715;44.760;37.678;2023-06-22T02:06:29;8.27;;;2.78;;
74922;SDS011;64715;44.760;37.678;2023-06-22T02:07:39;10.35;;;3.15;;
74922;SDS011;64715;44.760;37.678;2023-06-22T02:08:49;10.30;;;3.38;;
74922;SDS011;64715;44.760;37.678;2023-06-22T02:09:52;9.30;;;2.88;;
74922;SDS011;64715;44.760;37.678;2023-06-22T02:10:55;7.30;;;2.37;;
74922;SDS011;64715;44.760;37.678;2023-06-22T02:11:58;9.98;;;3.22;;
74922;SDS011;64715;44.760;37.678;2023-06-22T02:13:01;12.50;;;4.70;;
74922;SDS011;64715;44.760;37.678;2023-06-22T02:14:05;12.30;;;4.50;;
74922;SDS011;64715;44.760;37.678;2023-06-22T02:15:07;13.77;;;5.63;;
74922;SDS011;64715;44.760;37.678;2023-06-22T02:16:10;12.13;;;4.50;;
74922;SDS011;64715;44.760;37.678;2023-06-22T02:17:14;13.73;;;4.35;;
74922;SDS011;64715;44.760;37.678;2023-06-22T02:18:19;22.27;;;6.68;;
74922;SDS011;64715;44.760;37.678;2023-06-22T02:19:22;23.10;;;6.07;;
74922;SDS011;64715;44.760;37.678;2023-06-22T02:20:25;21.83;;;6.60;;
74922;SDS011;64715;44.760;37.678;2023-06-22T02:21:26;15.73;;;5.83;;
74922;SDS011;64715;44.760;37.678;2023-06-22T02:22:27;22.58;;;6.03;;
74922;SDS011;64715;44.760;37.678;2023-06-22T02:23:27;23.40;;;6.85;;
74922;SDS011;64715;44.760;37.678;2023-06-22T02:24:28;16.65;;;6.43;;
74922;SDS011;64715;44.760;37.678;2023-06-22T02:25:33;21.58;;;6.05;;
74922;SDS011;64715;44.760;37.678;2023-06-22T02:26:34;16.33;;;5.88;;
74922;SDS011;64715;44.760;37.678;2023-06-22T02:27:36;13.70;;;5.00;;
74922;SDS011;64715;44.760;37.678;2023-06-22T02:28:40;17.83;;;5.85;;
74922;SDS011;64715;44.760;37.678;2023-06-22T02:29:41;16.27;;;5.50;;
74922;SDS011;64715;44.760;37.678;2023-06-22T02:30:43;19.17;;;6.63;;
74922;SDS011;64715;44.760;37.678;2023-06-22T02:31:44;15.95;;;4.93;;
74922;SDS011;64715;44.760;37.678;2023-06-22T02:32:46;15.38;;;4.10;;
74922;SDS011;64715;44.760;37.678;2023-06-22T02:33:49;12.23;;;4.18;;
74922;SDS011;64715;44.760;37.678;2023-06-22T02:34:53;11.32;;;4.65;;
74922;SDS011;64715;44.760;37.678;2023-06-22T02:35:54;11.23;;;3.65;;
74922;SDS011;64715;44.760;37.678;2023-06-22T02:36:56;11.15;;;3.65;;
74922;SDS011;64715;44.760;37.678;2023-06-22T02:37:58;10.63;;;3.70;;
74922;SDS011;64715;44.760;37.678;2023-06-22T02:39:01;9.48;;;3.92;;
74922;SDS011;64715;44.760;37.678;2023-06-22T02:40:05;11.80;;;3.78;;
74922;SDS011;64715;44.760;37.678;2023-06-22T02:41:10;12.73;;;4.53;;
74922;SDS011;64715;44.760;37.678;2023-06-22T02:42:13;12.70;;;4.45;;
74922;SDS011;64715;44.760;37.678;2023-06-22T02:43:16;11.82;;;4.35;;
74922;SDS011;64715;44.760;37.678;2023-06-22T02:44:18;10.10;;;3.67;;
74922;SDS011;64715;44.760;37.678;2023-06-22T02:45:22;8.82;;;3.65;;
74922;SDS011;64715;44.760;37.678;2023-06-22T02:46:23;11.70;;;3.65;;
74922;SDS011;64715;44.760;37.678;2023-06-22T02:47:24;9.82;;;4.20;;
74922;SDS011;64715;44.760;37.678;2023-06-22T02:48:26;9.05;;;3.50;;
74922;SDS011;64715;44.760;37.678;2023-06-22T02:49:27;12.57;;;3.70;;
74922;SDS011;64715;44.760;37.678;2023-06-22T02:50:28;12.25;;;3.63;;
74922;SDS011;64715;44.760;37.678;2023-06-22T02:51:30;8.50;;;3.33;;
74922;SDS011;64715;44.760;37.678;2023-06-22T02:52:34;11.32;;;3.60;;
74922;SDS011;64715;44.760;37.678;2023-06-22T02:53:36;8.73;;;3.30;;
74922;SDS011;64715;44.760;37.678;2023-06-22T02:54:37;9.45;;;3.50;;
74922;SDS011;64715;44.760;37.678;2023-06-22T02:55:38;10.40;;;3.83;;
74922;SDS011;64715;44.760;37.678;2023-06-22T02:56:40;13.30;;;3.45;;
74922;SDS011;64715;44.760;37.678;2023-06-22T02:57:44;12.18;;;3.70;;
74922;SDS011;64715;44.760;37.678;2023-06-22T02:58:47;9.77;;;3.43;;
74922;SDS011;64715;44.760;37.678;2023-06-22T02:59:48;10.05;;;3.70;;
74922;SDS011;64715;44.760;37.678;2023-06-22T03:00:48;7.97;;;3.38;;
74922;SDS011;64715;44.760;37.678;2023-06-22T03:01:53;9.20;;;3.30;;
74922;SDS011;64715;44.760;37.678;2023-06-22T03:03:02;11.55;;;3.60;;
74922;SDS011;64715;44.760;37.678;2023-06-22T03:04:03;10.70;;;3.33;;
74922;SDS011;64715;44.760;37.678;2023-06-22T03:05:05;8.82;;;3.58;;
74922;SDS011;64715;44.760;37.678;2023-06-22T03:06:06;7.65;;;3.42;;
74922;SDS011;64715;44.760;37.678;2023-06-22T03:07:07;12.48;;;3.78;;
74922;SDS011;64715;44.760;37.678;2023-06-22T03:08:08;8.30;;;3.43;;
74922;SDS011;64715;44.760;37.678;2023-06-22T03:09:10;8.88;;;3.30;;
74922;SDS011;64715;44.760;37.678;2023-06-22T03:10:12;9.90;;;3.70;;
74922;SDS011;64715;44.760;37.678;2023-06-22T03:11:14;10.18;;;3.20;;
74922;SDS011;64715;44.760;37.678;2023-06-22T03:12:15;9.50;;;3.38;;
74922;SDS011;64715;44.760;37.678;2023-06-22T03:13:23;9.70;;;3.80;;
74922;SDS011;64715;44.760;37.678;2023-06-22T03:14:25;10.13;;;3.95;;
74922;SDS011;64715;44.760;37.678;2023-06-22T03:15:27;9.95;;;3.30;;
74922;SDS011;64715;44.760;37.678;2023-06-22T03:16:30;9.10;;;4.10;;
74922;SDS011;64715;44.760;37.678;2023-06-22T03:17:31;9.93;;;3.78;;
74922;SDS011;64715;44.760;37.678;2023-06-22T03:18:35;10.80;;;3.97;;
74922;SDS011;64715;44.760;37.678;2023-06-22T03:19:36;8.27;;;3.45;;
74922;SDS011;64715;44.760;37.678;2023-06-22T03:20:37;10.73;;;4.30;;
74922;SDS011;64715;44.760;37.678;2023-06-22T03:21:39;9.00;;;3.45;;
74922;SDS011;64715;44.760;37.678;2023-06-22T03:22:41;15.13;;;3.40;;
74922;SDS011;64715;44.760;37.678;2023-06-22T03:23:43;8.27;;;3.63;;
74922;SDS011;64715;44.760;37.678;2023-06-22T03:24:45;7.47;;;3.35;;
74922;SDS011;64715;44.760;37.678;2023-06-22T03:25:46;8.57;;;3.80;;
74922;SDS011;64715;44.760;37.678;2023-06-22T03:26:48;9.55;;;3.50;;
74922;SDS011;64715;44.760;37.678;2023-06-22T03:27:50;8.75;;;3.70;;
74922;SDS011;64715;44.760;37.678;2023-06-22T03:28:51;7.70;;;3.47;;
74922;SDS011;64715;44.760;37.678;2023-06-22T03:29:52;9.15;;;3.90;;
74922;SDS011;64715;44.760;37.678;2023-06-22T03:30:53;9.50;;;4.13;;
74922;SDS011;64715;44.760;37.678;2023-06-22T03:31:54;8.38;;;3.95;;
74922;SDS011;64715;44.760;37.678;2023-06-22T03:32:56;12.93;;;4.03;;
74922;SDS011;64715;44.760;37.678;2023-06-22T03:33:57;8.70;;;3.40;;
74922;SDS011;64715;44.760;37.678;2023-06-22T03:34:58;8.57;;;3.47;;
74922;SDS011;64715;44.760;37.678;2023-06-22T03:36:00;9.35;;;3.80;;
74922;SDS011;64715;44.760;37.678;2023-06-22T03:37:02;10.43;;;4.20;;
74922;SDS011;64715;44.760;37.678;2023-06-22T03:38:03;9.00;;;4.38;;
74922;SDS011;64715;44.760;37.678;2023-06-22T03:39:05;8.80;;;3.58;;
74922;SDS011;64715;44.760;37.678;2023-06-22T03:40:06;8.90;;;3.80;;
74922;SDS011;64715;44.760;37.678;2023-06-22T03:41:09;11.48;;;3.63;;
74922;SDS011;64715;44.760;37.678;2023-06-22T03:42:10;10.88;;;4.32;;
74922;SDS011;64715;44.760;37.678;2023-06-22T03:43:11;10.83;;;3.90;;
74922;SDS011;64715;44.760;37.678;2023-06-22T03:44:12;9.18;;;3.90;;
74922;SDS011;64715;44.760;37.678;2023-06-22T03:45:13;8.48;;;3.88;;
74922;SDS011;64715;44.760;37.678;2023-06-22T03:46:15;9.52;;;3.78;;
74922;SDS011;64715;44.760;37.678;2023-06-22T03:47:17;13.38;;;4.10;;
74922;SDS011;64715;44.760;37.678;2023-06-22T03:48:18;10.27;;;3.90;;
74922;SDS011;64715;44.760;37.678;2023-06-22T03:49:19;10.18;;;4.32;;
74922;SDS011;64715;44.760;37.678;2023-06-22T03:50:20;11.07;;;4.10;;
74922;SDS011;64715;44.760;37.678;2023-06-22T03:51:21;8.70;;;3.70;;
74922;SDS011;64715;44.760;37.678;2023-06-22T03:52:22;8.98;;;3.72;;
74922;SDS011;64715;44.760;37.678;2023-06-22T03:53:23;8.80;;;3.63;;
74922;SDS011;64715;44.760;37.678;2023-06-22T03:54:24;12.13;;;4.38;;
74922;SDS011;64715;44.760;37.678;2023-06-22T03:55:25;8.32;;;3.70;;
74922;SDS011;64715;44.760;37.678;2023-06-22T03:56:27;8.30;;;3.97;;
74922;SDS011;64715;44.760;37.678;2023-06-22T03:57:29;9.10;;;3.78;;
74922;SDS011;64715;44.760;37.678;2023-06-22T03:58:30;11.03;;;3.83;;
74922;SDS011;64715;44.760;37.678;2023-06-22T03:59:33;9.10;;;3.88;;
74922;SDS011;64715;44.760;37.678;2023-06-22T04:00:34;10.30;;;3.67;;
74922;SDS011;64715;44.760;37.678;2023-06-22T04:01:35;8.52;;;3.70;;
74922;SDS011;64715;44.760;37.678;2023-06-22T04:02:37;12.00;;;4.55;;
74922;SDS011;64715;44.760;37.678;2023-06-22T04:03:38;9.07;;;3.70;;
74922;SDS011;64715;44.760;37.678;2023-06-22T04:04:40;13.27;;;4.40;;
74922;SDS011;64715;44.760;37.678;2023-06-22T04:05:41;9.68;;;4.10;;
74922;SDS011;64715;44.760;37.678;2023-06-22T04:06:42;10.50;;;4.05;;
74922;SDS011;64715;44.760;37.678;2023-06-22T04:07:43;9.90;;;4.07;;
74922;SDS011;64715;44.760;37.678;2023-06-22T04:08:45;10.63;;;4.05;;
74922;SDS011;64715;44.760;37.678;2023-06-22T04:09:49;10.60;;;4.13;;
74922;SDS011;64715;44.760;37.678;2023-06-22T04:10:51;11.10;;;4.15;;
74922;SDS011;64715;44.760;37.678;2023-06-22T04:11:51;8.32;;;3.92;;
74922;SDS011;64715;44.760;37.678;2023-06-22T04:12:52;8.13;;;3.72;;
74922;SDS011;64715;44.760;37.678;2023-06-22T04:13:54;9.00;;;3.95;;
74922;SDS011;64715;44.760;37.678;2023-06-22T04:14:55;9.30;;;4.00;;
74922;SDS011;64715;44.760;37.678;2023-06-22T04:15:56;10.98;;;4.53;;
74922;SDS011;64715;44.760;37.678;2023-06-22T04:16:58;9.52;;;4.07;;
74922;SDS011;64715;44.760;37.678;2023-06-22T04:17:59;10.40;;;4.07;;
74922;SDS011;64715;44.760;37.678;2023-06-22T04:19:00;10.82;;;4.10;;
74922;SDS011;64715;44.760;37.678;2023-06-22T04:20:01;11.90;;;4.32;;
74922;SDS011;64715;44.760;37.678;2023-06-22T04:21:04;10.05;;;4.43;;
74922;SDS011;64715;44.760;37.678;2023-06-22T04:22:05;11.90;;;4.10;;
74922;SDS011;64715;44.760;37.678;2023-06-22T04:23:07;9.75;;;4.28;;
74922;SDS011;64715;44.760;37.678;2023-06-22T04:24:08;8.20;;;4.30;;
74922;SDS011;64715;44.760;37.678;2023-06-22T04:25:09;8.73;;;4.38;;
74922;SDS011;64715;44.760;37.678;2023-06-22T04:26:11;9.88;;;4.50;;
74922;SDS011;64715;44.760;37.678;2023-06-22T04:27:12;11.00;;;4.75;;
74922;SDS011;64715;44.760;37.678;2023-06-22T04:28:13;9.77;;;4.72;;
74922;SDS011;64715;44.760;37.678;2023-06-22T04:29:15;10.02;;;4.30;;
74922;SDS011;64715;44.760;37.678;2023-06-22T04:30:16;11.70;;;4.33;;
74922;SDS011;64715;44.760;37.678;2023-06-22T04:31:17;10.02;;;4.30;;
74922;SDS011;64715;44.760;37.678;2023-06-22T04:32:21;10.60;;;4.50;;
74922;SDS011;64715;44.760;37.678;2023-06-22T04:33:22;10.68;;;4.40;;
74922;SDS011;64715;44.760;37.678;2023-06-22T04:34:22;11.32;;;4.00;;
74922;SDS011;64715;44.760;37.678;2023-06-22T04:35:27;12.13;;;4.57;;
74922;SDS011;64715;44.760;37.678;2023-06-22T04:36:28;9.23;;;4.30;;
74922;SDS011;64715;44.760;37.678;2023-06-22T04:37:31;12.07;;;4.68;;
74922;SDS011;64715;44.760;37.678;2023-06-22T04:38:32;9.27;;;3.90;;
74922;SDS011;64715;44.760;37.678;2023-06-22T04:39:34;8.63;;;4.35;;
74922;SDS011;64715;44.760;37.678;2023-06-22T04:40:36;7.95;;;4.00;;
74922;SDS011;64715;44.760;37.678;2023-06-22T04:41:37;10.43;;;4.55;;
74922;SDS011;64715;44.760;37.678;2023-06-22T04:42:42;10.32;;;4.45;;
74922;SDS011;64715;44.760;37.678;2023-06-22T04:43:52;9.23;;;4.40;;
74922;SDS011;64715;44.760;37.678;2023-06-22T04:44:54;9.93;;;4.70;;
74922;SDS011;64715;44.760;37.678;2023-06-22T04:45:55;10.05;;;4.13;;
74922;SDS011;64715;44.760;37.678;2023-06-22T04:47:03;8.63;;;4.07;;
74922;SDS011;64715;44.760;37.678;2023-06-22T04:48:09;8.97;;;4.33;;
74922;SDS011;64715;44.760;37.678;2023-06-22T04:49:10;10.48;;;4.32;;
74922;SDS011;64715;44.760;37.678;2023-06-22T04:50:14;10.18;;;4.38;;
74922;SDS011;64715;44.760;37.678;2023-06-22T04:51:16;10.65;;;4.53;;
74922;SDS011;64715;44.760;37.678;2023-06-22T04:52:17;10.20;;;4.60;;
74922;SDS011;64715;44.760;37.678;2023-06-22T04:53:20;9.88;;;4.55;;
74922;SDS011;64715;44.760;37.678;2023-06-22T04:54:21;10.55;;;4.68;;
74922;SDS011;64715;44.760;37.678;2023-06-22T04:55:23;9.53;;;4.80;;
74922;SDS011;64715;44.760;37.678;2023-06-22T04:56:26;11.27;;;5.73;;
74922;SDS011;64715;44.760;37.678;2023-06-22T04:57:30;11.93;;;5.53;;
74922;SDS011;64715;44.760;37.678;2023-06-22T04:58:33;16.20;;;5.18;;
74922;SDS011;64715;44.760;37.678;2023-06-22T04:59:34;10.55;;;5.05;;
74922;SDS011;64715;44.760;37.678;2023-06-22T05:00:36;10.60;;;4.68;;
74922;SDS011;64715;44.760;37.678;2023-06-22T05:01:37;12.23;;;4.80;;
74922;SDS011;64715;44.760;37.678;2023-06-22T05:02:41;9.37;;;4.60;;
74922;SDS011;64715;44.760;37.678;2023-06-22T05:03:42;12.07;;;4.20;;
74922;SDS011;64715;44.760;37.678;2023-06-22T05:04:44;10.57;;;5.00;;
74922;SDS011;64715;44.760;37.678;2023-06-22T05:05:45;12.88;;;4.50;;
74922;SDS011;64715;44.760;37.678;2023-06-22T05:06:46;8.88;;;4.18;;
74922;SDS011;64715;44.760;37.678;2023-06-22T05:07:47;14.73;;;4.80;;
74922;SDS011;64715;44.760;37.678;2023-06-22T05:08:53;12.20;;;5.07;;
74922;SDS011;64715;44.760;37.678;2023-06-22T05:09:57;10.23;;;4.88;;
74922;SDS011;64715;44.760;37.678;2023-06-22T05:10:58;11.10;;;4.30;;
74922;SDS011;64715;44.760;37.678;2023-06-22T05:11:59;8.95;;;4.25;;
74922;SDS011;64715;44.760;37.678;2023-06-22T05:13:03;11.70;;;4.70;;
74922;SDS011;64715;44.760;37.678;2023-06-22T05:14:04;9.48;;;4.40;;
74922;SDS011;64715;44.760;37.678;2023-06-22T05:15:05;9.45;;;4.40;;
74922;SDS011;64715;44.760;37.678;2023-06-22T05:16:08;12.15;;;4.18;;
74922;SDS011;64715;44.760;37.678;2023-06-22T05:17:09;10.07;;;4.03;;
74922;SDS011;64715;44.760;37.678;2023-06-22T05:18:14;10.50;;;4.18;;
74922;SDS011;64715;44.760;37.678;2023-06-22T05:19:15;9.15;;;4.53;;
74922;SDS011;64715;44.760;37.678;2023-06-22T05:20:17;9.50;;;4.30;;
74922;SDS011;64715;44.760;37.678;2023-06-22T05:21:22;8.32;;;3.97;;
74922;SDS011;64715;44.760;37.678;2023-06-22T05:22:24;9.60;;;4.10;;
74922;SDS011;64715;44.760;37.678;2023-06-22T05:23:25;9.20;;;4.15;;
74922;SDS011;64715;44.760;37.678;2023-06-22T05:24:26;9.23;;;4.82;;
74922;SDS011;64715;44.760;37.678;2023-06-22T05:25:27;8.70;;;4.53;;
74922;SDS011;64715;44.760;37.678;2023-06-22T05:26:30;9.32;;;3.83;;
74922;SDS011;64715;44.760;37.678;2023-06-22T05:27:33;9.93;;;4.72;;
74922;SDS011;64715;44.760;37.678;2023-06-22T05:28:34;8.63;;;4.05;;
74922;SDS011;64715;44.760;37.678;2023-06-22T05:29:36;10.75;;;4.72;;
74922;SDS011;64715;44.760;37.678;2023-06-22T05:30:37;9.82;;;4.20;;
74922;SDS011;64715;44.760;37.678;2023-06-22T05:31:38;9.52;;;4.03;;
74922;SDS011;64715;44.760;37.678;2023-06-22T05:32:41;11.45;;;4.20;;
74922;SDS011;64715;44.760;37.678;2023-06-22T05:33:42;8.23;;;4.10;;
74922;SDS011;64715;44.760;37.678;2023-06-22T05:34:44;13.07;;;3.90;;
74922;SDS011;64715;44.760;37.678;2023-06-22T05:35:45;8.95;;;4.28;;
74922;SDS011;64715;44.760;37.678;2023-06-22T05:36:47;9.75;;;4.40;;
74922;SDS011;64715;44.760;37.678;2023-06-22T05:37:48;8.45;;;4.25;;
74922;SDS011;64715;44.760;37.678;2023-06-22T05:38:49;7.95;;;3.97;;
74922;SDS011;64715;44.760;37.678;2023-06-22T05:39:50;10.75;;;4.20;;
74922;SDS011;64715;44.760;37.678;2023-06-22T05:40:51;8.40;;;3.72;;
74922;SDS011;64715;44.760;37.678;2023-06-22T05:41:52;8.47;;;3.50;;
74922;SDS011;64715;44.760;37.678;2023-06-22T05:42:53;9.93;;;3.90;;
74922;SDS011;64715;44.760;37.678;2023-06-22T05:43:54;9.82;;;4.30;;
74922;SDS011;64715;44.760;37.678;2023-06-22T05:44:55;9.35;;;4.22;;
74922;SDS011;64715;44.760;37.678;2023-06-22T05:45:56;9.38;;;3.38;;
74922;SDS011;64715;44.760;37.678;2023-06-22T05:46:57;8.52;;;3.83;;
74922;SDS011;64715;44.760;37.678;2023-06-22T05:47:58;10.30;;;3.60;;
74922;SDS011;64715;44.760;37.678;2023-06-22T05:48:59;7.22;;;3.50;;
74922;SDS011;64715;44.760;37.678;2023-06-22T05:50:01;10.68;;;3.70;;
74922;SDS011;64715;44.760;37.678;2023-06-22T05:51:06;9.88;;;3.65;;
74922;SDS011;64715;44.760;37.678;2023-06-22T05:52:07;10.82;;;3.60;;
74922;SDS011;64715;44.760;37.678;2023-06-22T05:53:08;10.63;;;3.63;;
74922;SDS011;64715;44.760;37.678;2023-06-22T05:54:09;9.30;;;4.03;;
74922;SDS011;64715;44.760;37.678;2023-06-22T05:55:10;7.47;;;3.13;;
74922;SDS011;64715;44.760;37.678;2023-06-22T05:56:11;8.88;;;3.60;;
74922;SDS011;64715;44.760;37.678;2023-06-22T05:57:12;10.18;;;3.90;;
74922;SDS011;64715;44.760;37.678;2023-06-22T05:58:13;8.55;;;3.60;;
74922;SDS011;64715;44.760;37.678;2023-06-22T05:59:14;9.05;;;3.50;;
74922;SDS011;64715;44.760;37.678;2023-06-22T06:00:15;15.18;;;3.35;;
74922;SDS011;64715;44.760;37.678;2023-06-22T06:01:17;10.07;;;3.20;;
74922;SDS011;64715;44.760;37.678;2023-06-22T06:02:18;26.97;;;4.73;;
74922;SDS011;64715;44.760;37.678;2023-06-22T06:03:20;8.70;;;3.45;;
74922;SDS011;64715;44.760;37.678;2023-06-22T06:04:20;7.68;;;3.55;;
74922;SDS011;64715;44.760;37.678;2023-06-22T06:05:23;7.68;;;3.38;;
74922;SDS011;64715;44.760;37.678;2023-06-22T06:06:25;13.50;;;4.05;;
74922;SDS011;64715;44.760;37.678;2023-06-22T06:07:28;12.23;;;4.18;;
74922;SDS011;64715;44.760;37.678;2023-06-22T06:08:30;8.88;;;3.53;;
74922;SDS011;64715;44.760;37.678;2023-06-22T06:09:31;9.47;;;3.10;;
74922;SDS011;64715;44.760;37.678;2023-06-22T06:10:32;8.27;;;3.30;;
74922;SDS011;64715;44.760;37.678;2023-06-22T06:11:34;13.52;;;4.20;;
74922;SDS011;64715;44.760;37.678;2023-06-22T06:12:35;19.38;;;3.88;;
74922;SDS011;64715;44.760;37.678;2023-06-22T06:13:36;11.50;;;3.67;;
74922;SDS011;64715;44.760;37.678;2023-06-22T06:14:37;10.15;;;3.25;;
74922;SDS011;64715;44.760;37.678;2023-06-22T06:15:38;9.30;;;3.67;;